sensor_id;sensor_type;location;lat;lon;timestamp;pressure;altitude;pressure_sealevel;temperature;humidity
50268;BME280;36153;50.960;6.220;2024-02-14T00:01:48;100511.72;;;13.84;53.00
50268;BME280;36153;50.960;6.220;2024-02-14T00:03:48;100521.25;;;14.07;52.42
50268;BME280;36153;50.960;6.220;2024-02-14T00:05:49;100529.13;;;14.02;52.40
50268;BME280;36153;50.960;6.220;2024-02-14T00:07:50;100530.84;;;14.17;52.35
50268;BME280;36153;50.960;6.220;2024-02-14T00:09:50;100536.06;;;14.12;52.50
50268;BME280;36153;50.960;6.220;2024-02-14T00:11:50;100533.47;;;14.06;52.54
50268;BME280;36153;50.960;6.220;2024-02-14T00:13:51;100531.69;;;14.19;52.25
50268;BME280;36153;50.960;6.220;2024-02-14T00:15:52;100530.78;;;14.28;52.04
50268;BME280;36153;50.960;6.220;2024-02-14T00:17:53;100532.47;;;14.46;51.60
50268;BME280;36153;50.960;6.220;2024-02-14T00:19:53;100532.44;;;14.54;51.37
50268;BME280;36153;50.960;6.220;2024-02-14T00:21:53;100536.84;;;14.38;52.14
50268;BME280;36153;50.960;6.220;2024-02-14T00:23:55;100534.31;;;14.24;52.15
50268;BME280;36153;50.960;6.220;2024-02-14T00:25:57;100529.09;;;14.08;53.26
50268;BME280;36153;50.960;6.220;2024-02-14T00:27:57;100542.19;;;14.13;53.40
50268;BME280;36153;50.960;6.220;2024-02-14T00:30:00;100533.47;;;14.15;53.31
50268;BME280;36153;50.960;6.220;2024-02-14T00:32:01;100536.06;;;14.22;53.20
50268;BME280;36153;50.960;6.220;2024-02-14T00:34:02;100538.66;;;14.23;53.10
50268;BME280;36153;50.960;6.220;2024-02-14T00:36:02;100535.97;;;14.46;52.76
50268;BME280;36153;50.960;6.220;2024-02-14T00:38:02;100524.75;;;14.10;54.37
50268;BME280;36153;50.960;6.220;2024-02-14T00:40:03;100530.00;;;13.96;54.92
50268;BME280;36153;50.960;6.220;2024-02-14T00:42:04;100524.78;;;13.96;54.89
50268;BME280;36153;50.960;6.220;2024-02-14T00:44:04;100522.16;;;13.89;54.91
50268;BME280;36153;50.960;6.220;2024-02-14T00:46:04;100523.91;;;13.93;55.19
50268;BME280;36153;50.960;6.220;2024-02-14T00:48:05;100517.75;;;14.14;54.44
50268;BME280;36153;50.960;6.220;2024-02-14T00:50:08;100518.66;;;14.11;54.46
50268;BME280;36153;50.960;6.220;2024-02-14T00:52:09;100508.16;;;14.14;54.34
50268;BME280;36153;50.960;6.220;2024-02-14T00:54:09;100497.66;;;14.17;54.17
50268;BME280;36153;50.960;6.220;2024-02-14T00:56:10;100497.66;;;14.24;54.46
50268;BME280;36153;50.960;6.220;2024-02-14T00:58:10;100506.34;;;14.32;54.46
50268;BME280;36153;50.960;6.220;2024-02-14T01:00:11;100510.72;;;14.22;54.97
50268;BME280;36153;50.960;6.220;2024-02-14T01:02:12;100501.16;;;14.16;54.66
50268;BME280;36153;50.960;6.220;2024-02-14T01:04:12;100506.41;;;14.20;54.85
50268;BME280;36153;50.960;6.220;2024-02-14T01:06:12;100500.34;;;14.02;54.99
50268;BME280;36153;50.960;6.220;2024-02-14T01:08:14;100508.13;;;14.24;55.20
50268;BME280;36153;50.960;6.220;2024-02-14T01:10:14;100502.03;;;14.12;55.37
50268;BME280;36153;50.960;6.220;2024-02-14T01:12:15;100499.38;;;14.26;55.09
50268;BME280;36153;50.960;6.220;2024-02-14T01:14:15;100503.69;;;14.40;54.65
50268;BME280;36153;50.960;6.220;2024-02-14T01:16:16;100508.03;;;14.47;54.00
50268;BME280;36153;50.960;6.220;2024-02-14T01:18:16;100507.22;;;14.32;54.43
50268;BME280;36153;50.960;6.220;2024-02-14T01:20:17;100502.00;;;14.26;54.61
50268;BME280;36153;50.960;6.220;2024-02-14T01:22:18;100500.19;;;14.38;54.22
50268;BME280;36153;50.960;6.220;2024-02-14T01:24:18;100489.78;;;14.27;54.58
50268;BME280;36153;50.960;6.220;2024-02-14T01:26:20;100490.63;;;14.38;54.71
50268;BME280;36153;50.960;6.220;2024-02-14T01:28:21;100495.91;;;14.24;54.71
50268;BME280;36153;50.960;6.220;2024-02-14T01:30:21;100483.72;;;14.12;55.17
50268;BME280;36153;50.960;6.220;2024-02-14T01:32:22;100497.50;;;14.59;53.97
50268;BME280;36153;50.960;6.220;2024-02-14T01:34:23;100495.75;;;14.57;54.10
50268;BME280;36153;50.960;6.220;2024-02-14T01:36:24;100505.59;;;14.00;55.90
50268;BME280;36153;50.960;6.220;2024-02-14T01:38:26;100496.81;;;14.19;55.40
50268;BME280;36153;50.960;6.220;2024-02-14T01:40:26;100499.44;;;14.09;55.53
50268;BME280;36153;50.960;6.220;2024-02-14T01:42:27;100503.72;;;14.29;55.12
50268;BME280;36153;50.960;6.220;2024-02-14T01:44:27;100491.44;;;14.48;54.72
50268;BME280;36153;50.960;6.220;2024-02-14T01:46:28;100492.31;;;14.45;54.47
50268;BME280;36153;50.960;6.220;2024-02-14T01:48:28;100492.38;;;14.33;55.09
50268;BME280;36153;50.960;6.220;2024-02-14T01:50:28;100494.97;;;14.42;54.86
50268;BME280;36153;50.960;6.220;2024-02-14T01:52:29;100492.34;;;14.38;55.11
50268;BME280;36153;50.960;6.220;2024-02-14T01:54:31;100500.22;;;14.39;55.11
50268;BME280;36153;50.960;6.220;2024-02-14T01:56:33;100498.41;;;14.46;54.97
50268;BME280;36153;50.960;6.220;2024-02-14T01:58:33;100509.91;;;14.15;55.75
50268;BME280;36153;50.960;6.220;2024-02-14T02:00:34;100504.63;;;14.25;55.68
50268;BME280;36153;50.960;6.220;2024-02-14T02:02:35;100508.97;;;14.27;55.54
50268;BME280;36153;50.960;6.220;2024-02-14T02:04:37;100507.19;;;14.40;54.98
50268;BME280;36153;50.960;6.220;2024-02-14T02:06:38;100509.84;;;14.25;55.86
50268;BME280;36153;50.960;6.220;2024-02-14T02:08:44;100512.41;;;14.42;55.49
50268;BME280;36153;50.960;6.220;2024-02-14T02:10:46;100525.44;;;14.59;54.89
50268;BME280;36153;50.960;6.220;2024-02-14T02:12:48;100535.06;;;14.63;54.89
50268;BME280;36153;50.960;6.220;2024-02-14T02:14:50;100531.59;;;14.53;55.21
50268;BME280;36153;50.960;6.220;2024-02-14T02:16:52;100543.88;;;14.32;55.72
50268;BME280;36153;50.960;6.220;2024-02-14T02:18:53;100531.56;;;14.62;54.98
50268;BME280;36153;50.960;6.220;2024-02-14T02:20:54;100530.75;;;14.37;55.79
50268;BME280;36153;50.960;6.220;2024-02-14T02:22:56;100536.00;;;14.37;56.19
50268;BME280;36153;50.960;6.220;2024-02-14T02:24:56;100534.25;;;14.36;56.18
50268;BME280;36153;50.960;6.220;2024-02-14T02:26:56;100515.06;;;14.34;56.23
50268;BME280;36153;50.960;6.220;2024-02-14T02:28:57;100535.22;;;14.10;57.23
50268;BME280;36153;50.960;6.220;2024-02-14T02:30:59;100536.03;;;14.25;56.91
50268;BME280;36153;50.960;6.220;2024-02-14T02:33:00;100525.56;;;14.32;56.60
50268;BME280;36153;50.960;6.220;2024-02-14T02:35:00;100522.00;;;14.44;56.19
50268;BME280;36153;50.960;6.220;2024-02-14T02:37:01;100515.97;;;14.25;56.76
50268;BME280;36153;50.960;6.220;2024-02-14T02:39:01;100522.09;;;14.24;56.89
50268;BME280;36153;50.960;6.220;2024-02-14T02:41:03;100517.72;;;14.29;56.85
50268;BME280;36153;50.960;6.220;2024-02-14T02:43:06;100510.59;;;14.61;56.18
50268;BME280;36153;50.960;6.220;2024-02-14T02:45:07;100509.81;;;14.37;56.66
50268;BME280;36153;50.960;6.220;2024-02-14T02:47:08;100517.63;;;14.42;56.51
50268;BME280;36153;50.960;6.220;2024-02-14T02:49:12;100523.72;;;14.48;56.24
50268;BME280;36153;50.960;6.220;2024-02-14T02:51:17;100532.41;;;14.69;55.74
50268;BME280;36153;50.960;6.220;2024-02-14T02:53:20;100523.66;;;14.72;55.42
50268;BME280;36153;50.960;6.220;2024-02-14T02:55:21;100527.22;;;14.54;56.21
50268;BME280;36153;50.960;6.220;2024-02-14T02:57:21;100537.69;;;14.64;55.98
50268;BME280;36153;50.960;6.220;2024-02-14T02:59:21;100530.66;;;14.66;55.84
50268;BME280;36153;50.960;6.220;2024-02-14T03:01:22;100535.00;;;14.78;55.92
50268;BME280;36153;50.960;6.220;2024-02-14T03:03:24;100535.91;;;14.68;56.02
50268;BME280;36153;50.960;6.220;2024-02-14T03:05:27;100534.09;;;14.79;55.72
50268;BME280;36153;50.960;6.220;2024-02-14T03:07:28;100534.16;;;14.70;55.76
50268;BME280;36153;50.960;6.220;2024-02-14T03:09:29;100536.81;;;14.50;56.71
50268;BME280;36153;50.960;6.220;2024-02-14T03:11:29;100534.19;;;14.56;56.79
50268;BME280;36153;50.960;6.220;2024-02-14T03:13:31;100529.81;;;14.61;57.20
50268;BME280;36153;50.960;6.220;2024-02-14T03:15:32;100536.84;;;14.44;57.89
50268;BME280;36153;50.960;6.220;2024-02-14T03:17:34;100530.75;;;14.37;58.95
50268;BME280;36153;50.960;6.220;2024-02-14T03:19:34;100522.94;;;14.32;58.24
50268;BME280;36153;50.960;6.220;2024-02-14T03:21:38;100525.56;;;14.31;58.88
50268;BME280;36153;50.960;6.220;2024-02-14T03:23:38;100535.22;;;14.20;58.67
50268;BME280;36153;50.960;6.220;2024-02-14T03:25:40;100519.53;;;14.09;58.61
50268;BME280;36153;50.960;6.220;2024-02-14T03:27:40;100523.91;;;13.90;59.98
50268;BME280;36153;50.960;6.220;2024-02-14T03:29:40;100517.78;;;14.05;59.25
50268;BME280;36153;50.960;6.220;2024-02-14T03:31:41;100522.13;;;14.04;59.03
50268;BME280;36153;50.960;6.220;2024-02-14T03:33:43;100527.41;;;13.95;60.06
50268;BME280;36153;50.960;6.220;2024-02-14T03:35:44;100524.78;;;13.90;60.22
50268;BME280;36153;50.960;6.220;2024-02-14T03:37:45;100530.88;;;14.03;59.70
50268;BME280;36153;50.960;6.220;2024-02-14T03:39:49;100522.13;;;14.13;59.05
50268;BME280;36153;50.960;6.220;2024-02-14T03:41:50;100516.94;;;13.96;59.30
50268;BME280;36153;50.960;6.220;2024-02-14T03:43:52;100531.72;;;14.14;58.74
50268;BME280;36153;50.960;6.220;2024-02-14T03:45:54;100534.31;;;14.27;58.91
50268;BME280;36153;50.960;6.220;2024-02-14T03:47:56;100531.66;;;14.34;58.12
50268;BME280;36153;50.960;6.220;2024-02-14T03:49:56;100533.44;;;14.23;58.79
50268;BME280;36153;50.960;6.220;2024-02-14T03:51:57;100532.56;;;14.23;58.55
50268;BME280;36153;50.960;6.220;2024-02-14T03:53:57;100531.66;;;14.30;58.51
50268;BME280;36153;50.960;6.220;2024-02-14T03:55:58;100536.94;;;14.25;58.83
50268;BME280;36153;50.960;6.220;2024-02-14T03:57:58;100529.09;;;14.07;59.15
50268;BME280;36153;50.960;6.220;2024-02-14T04:00:01;100534.38;;;13.93;59.26
50268;BME280;36153;50.960;6.220;2024-02-14T04:02:04;100534.31;;;14.17;58.93
50268;BME280;36153;50.960;6.220;2024-02-14T04:04:04;100530.75;;;14.40;58.03
50268;BME280;36153;50.960;6.220;2024-02-14T04:06:05;100529.97;;;14.10;58.26
50268;BME280;36153;50.960;6.220;2024-02-14T04:08:07;100529.13;;;14.02;59.20
50268;BME280;36153;50.960;6.220;2024-02-14T04:10:10;100528.22;;;14.11;58.53
50268;BME280;36153;50.960;6.220;2024-02-14T04:12:10;100522.16;;;14.06;58.86
50268;BME280;36153;50.960;6.220;2024-02-14T04:14:11;100520.41;;;13.97;59.08
50268;BME280;36153;50.960;6.220;2024-02-14T04:16:12;100525.66;;;13.85;59.55
50268;BME280;36153;50.960;6.220;2024-02-14T04:18:14;100531.78;;;13.88;59.37
50268;BME280;36153;50.960;6.220;2024-02-14T04:20:16;100530.00;;;14.06;58.60
50268;BME280;36153;50.960;6.220;2024-02-14T04:22:19;100526.53;;;13.93;59.25
50268;BME280;36153;50.960;6.220;2024-02-14T04:24:22;100545.69;;;14.04;59.38
50268;BME280;36153;50.960;6.220;2024-02-14T04:26:23;100543.91;;;14.22;58.75
50268;BME280;36153;50.960;6.220;2024-02-14T04:28:23;100536.94;;;14.16;59.05
50268;BME280;36153;50.960;6.220;2024-02-14T04:30:24;100550.94;;;14.07;59.44
50268;BME280;36153;50.960;6.220;2024-02-14T04:32:24;100556.13;;;14.24;58.88
50268;BME280;36153;50.960;6.220;2024-02-14T04:34:25;100550.00;;;14.30;58.64
50268;BME280;36153;50.960;6.220;2024-02-14T04:36:25;100559.59;;;14.31;58.67
50268;BME280;36153;50.960;6.220;2024-02-14T04:38:26;100553.50;;;14.26;58.81
50268;BME280;36153;50.960;6.220;2024-02-14T04:40:28;100557.84;;;14.33;58.49
50268;BME280;36153;50.960;6.220;2024-02-14T04:42:29;100563.94;;;14.30;58.69
50268;BME280;36153;50.960;6.220;2024-02-14T04:44:29;100555.22;;;14.39;58.12
50268;BME280;36153;50.960;6.220;2024-02-14T04:46:29;100563.94;;;14.38;58.57
50268;BME280;36153;50.960;6.220;2024-02-14T04:48:30;100565.75;;;14.24;59.09
50268;BME280;36153;50.960;6.220;2024-02-14T04:50:30;100566.63;;;14.09;59.27
50268;BME280;36153;50.960;6.220;2024-02-14T04:52:31;100560.38;;;14.51;58.18
50268;BME280;36153;50.960;6.220;2024-02-14T04:54:33;100574.44;;;14.35;59.10
50268;BME280;36153;50.960;6.220;2024-02-14T04:56:34;100568.34;;;14.24;59.39
50268;BME280;36153;50.960;6.220;2024-02-14T04:58:34;100572.63;;;14.42;59.57
50268;BME280;36153;50.960;6.220;2024-02-14T05:00:36;100572.69;;;14.31;59.89
50268;BME280;36153;50.960;6.220;2024-02-14T05:02:36;100571.84;;;14.21;60.28
50268;BME280;36153;50.960;6.220;2024-02-14T05:04:37;100576.19;;;14.27;59.68
50268;BME280;36153;50.960;6.220;2024-02-14T05:06:40;100577.97;;;14.06;60.64
50268;BME280;36153;50.960;6.220;2024-02-14T05:08:42;100575.31;;;14.23;60.85
50268;BME280;36153;50.960;6.220;2024-02-14T05:10:43;100586.72;;;14.02;60.77
50268;BME280;36153;50.960;6.220;2024-02-14T05:12:45;100585.81;;;13.98;61.65
50268;BME280;36153;50.960;6.220;2024-02-14T05:14:46;100595.41;;;14.13;61.78
50268;BME280;36153;50.960;6.220;2024-02-14T05:16:46;100598.00;;;14.18;61.49
50268;BME280;36153;50.960;6.220;2024-02-14T05:18:47;100588.44;;;14.15;61.61
50268;BME280;36153;50.960;6.220;2024-02-14T05:20:48;100592.78;;;14.04;61.84
50268;BME280;36153;50.960;6.220;2024-02-14T05:22:52;100595.41;;;14.12;62.09
50268;BME280;36153;50.960;6.220;2024-02-14T05:24:52;100593.69;;;14.03;62.13
50268;BME280;36153;50.960;6.220;2024-02-14T05:26:53;100589.31;;;14.14;62.08
50268;BME280;36153;50.960;6.220;2024-02-14T05:28:53;100596.28;;;14.20;61.75
50268;BME280;36153;50.960;6.220;2024-02-14T05:30:54;100584.00;;;14.36;60.92
50268;BME280;36153;50.960;6.220;2024-02-14T05:32:55;100580.59;;;13.86;62.31
50268;BME280;36153;50.960;6.220;2024-02-14T05:34:56;100585.84;;;13.89;62.90
50268;BME280;36153;50.960;6.220;2024-02-14T05:36:57;100581.47;;;14.02;61.97
50268;BME280;36153;50.960;6.220;2024-02-14T05:38:58;100587.59;;;13.99;61.74
50268;BME280;36153;50.960;6.220;2024-02-14T05:40:58;100584.06;;;14.21;61.40
50268;BME280;36153;50.960;6.220;2024-02-14T05:42:59;100585.81;;;14.00;61.31
50268;BME280;36153;50.960;6.220;2024-02-14T05:45:00;100577.97;;;13.98;61.89
50268;BME280;36153;50.960;6.220;2024-02-14T05:47:00;100582.34;;;14.06;61.83
50268;BME280;36153;50.960;6.220;2024-02-14T05:49:00;100587.53;;;14.24;60.98
50268;BME280;36153;50.960;6.220;2024-02-14T05:51:01;100584.91;;;14.33;60.79
50268;BME280;36153;50.960;6.220;2024-02-14T05:53:01;100585.78;;;14.31;60.88
50268;BME280;36153;50.960;6.220;2024-02-14T05:55:02;100582.34;;;13.99;62.02
50268;BME280;36153;50.960;6.220;2024-02-14T05:57:03;100591.91;;;14.17;61.58
50268;BME280;36153;50.960;6.220;2024-02-14T05:59:04;100592.81;;;13.98;62.01
50268;BME280;36153;50.960;6.220;2024-02-14T06:01:05;100594.53;;;14.24;61.59
50268;BME280;36153;50.960;6.220;2024-02-14T06:03:06;100591.03;;;14.31;60.99
50268;BME280;36153;50.960;6.220;2024-02-14T06:05:10;100580.53;;;14.28;60.73
50268;BME280;36153;50.960;6.220;2024-02-14T06:07:11;100596.25;;;14.36;60.79
50268;BME280;36153;50.960;6.220;2024-02-14T06:09:11;100581.44;;;14.25;61.21
50268;BME280;36153;50.960;6.220;2024-02-14T06:11:12;100590.06;;;14.57;60.24
50268;BME280;36153;50.960;6.220;2024-02-14T06:13:14;100586.69;;;14.24;61.07
50268;BME280;36153;50.960;6.220;2024-02-14T06:15:16;100591.00;;;14.45;60.99
50268;BME280;36153;50.960;6.220;2024-02-14T06:17:17;100584.91;;;14.37;60.65
50268;BME280;36153;50.960;6.220;2024-02-14T06:19:17;100590.09;;;14.50;60.15
50268;BME280;36153;50.960;6.220;2024-02-14T06:21:17;100593.56;;;14.51;60.04
50268;BME280;36153;50.960;6.220;2024-02-14T06:23:19;100588.38;;;14.28;60.85
50268;BME280;36153;50.960;6.220;2024-02-14T06:25:20;100590.13;;;14.47;60.38
50268;BME280;36153;50.960;6.220;2024-02-14T06:27:20;100593.59;;;14.48;60.03
50268;BME280;36153;50.960;6.220;2024-02-14T06:29:20;100594.47;;;14.47;60.08
50268;BME280;36153;50.960;6.220;2024-02-14T06:31:22;100594.44;;;14.48;60.02
50268;BME280;36153;50.960;6.220;2024-02-14T06:33:22;100595.31;;;14.54;60.05
50268;BME280;36153;50.960;6.220;2024-02-14T06:35:22;100600.56;;;14.50;59.99
50268;BME280;36153;50.960;6.220;2024-02-14T06:37:24;100601.47;;;14.28;60.67
50268;BME280;36153;50.960;6.220;2024-02-14T06:39:24;100611.03;;;14.44;60.40
50268;BME280;36153;50.960;6.220;2024-02-14T06:41:25;100609.34;;;14.28;61.12
50268;BME280;36153;50.960;6.220;2024-02-14T06:43:25;100604.97;;;14.31;60.81
50268;BME280;36153;50.960;6.220;2024-02-14T06:45:26;100604.97;;;14.42;60.43
50268;BME280;36153;50.960;6.220;2024-02-14T06:47:27;100609.31;;;14.37;60.74
50268;BME280;36153;50.960;6.220;2024-02-14T06:49:30;100616.28;;;14.49;60.22
50268;BME280;36153;50.960;6.220;2024-02-14T06:51:30;100621.56;;;14.38;60.29
50268;BME280;36153;50.960;6.220;2024-02-14T06:53:31;100623.25;;;14.55;59.93
50268;BME280;36153;50.960;6.220;2024-02-14T06:55:31;100624.16;;;14.63;59.94
50268;BME280;36153;50.960;6.220;2024-02-14T06:57:32;100623.22;;;14.61;59.61
50268;BME280;36153;50.960;6.220;2024-02-14T06:59:34;100621.50;;;14.69;59.44
50268;BME280;36153;50.960;6.220;2024-02-14T07:01:37;100628.53;;;14.39;60.32
50268;BME280;36153;50.960;6.220;2024-02-14T07:03:38;100637.22;;;14.54;59.94
50268;BME280;36153;50.960;6.220;2024-02-14T07:05:41;100630.25;;;14.42;60.37
50268;BME280;36153;50.960;6.220;2024-02-14T07:07:41;100639.00;;;14.45;60.09
50268;BME280;36153;50.960;6.220;2024-02-14T07:09:42;100638.16;;;14.23;61.12
50268;BME280;36153;50.960;6.220;2024-02-14T07:11:42;100642.50;;;14.41;60.47
50268;BME280;36153;50.960;6.220;2024-02-14T07:13:44;100639.88;;;14.40;60.82
50268;BME280;36153;50.960;6.220;2024-02-14T07:15:44;100639.84;;;14.46;60.48
50268;BME280;36153;50.960;6.220;2024-02-14T07:17:45;100639.88;;;14.49;60.69
50268;BME280;36153;50.960;6.220;2024-02-14T07:19:46;100638.94;;;14.61;60.19
50268;BME280;36153;50.960;6.220;2024-02-14T07:21:49;100636.34;;;14.72;59.88
50268;BME280;36153;50.960;6.220;2024-02-14T07:23:50;100638.94;;;14.72;59.93
50268;BME280;36153;50.960;6.220;2024-02-14T07:25:50;100637.19;;;14.72;60.03
50268;BME280;36153;50.960;6.220;2024-02-14T07:27:51;100633.75;;;14.67;60.37
50268;BME280;36153;50.960;6.220;2024-02-14T07:29:51;100635.50;;;14.63;60.53
50268;BME280;36153;50.960;6.220;2024-02-14T07:31:51;100642.41;;;14.81;59.92
50268;BME280;36153;50.960;6.220;2024-02-14T07:33:52;100636.25;;;14.92;58.99
50268;BME280;36153;50.960;6.220;2024-02-14T07:35:53;100631.88;;;14.94;59.42
50268;BME280;36153;50.960;6.220;2024-02-14T07:37:53;100635.47;;;14.73;60.33
50268;BME280;36153;50.960;6.220;2024-02-14T07:39:54;100626.72;;;14.69;60.79
50268;BME280;36153;50.960;6.220;2024-02-14T07:41:54;100637.19;;;14.77;60.44
50268;BME280;36153;50.960;6.220;2024-02-14T07:43:57;100639.78;;;14.83;60.21
50268;BME280;36153;50.960;6.220;2024-02-14T07:45:58;100643.19;;;15.07;59.40
50268;BME280;36153;50.960;6.220;2024-02-14T07:47:59;100635.28;;;15.14;59.06
50268;BME280;36153;50.960;6.220;2024-02-14T07:50:00;100633.50;;;15.19;58.86
50268;BME280;36153;50.960;6.220;2024-02-14T07:52:01;100636.03;;;15.36;58.31
50268;BME280;36153;50.960;6.220;2024-02-14T07:54:03;100647.38;;;15.40;58.39
50268;BME280;36153;50.960;6.220;2024-02-14T07:56:04;100645.63;;;15.42;58.20
50268;BME280;36153;50.960;6.220;2024-02-14T07:58:04;100640.28;;;15.51;57.81
50268;BME280;36153;50.960;6.220;2024-02-14T08:00:07;100644.72;;;15.48;57.71
50268;BME280;36153;50.960;6.220;2024-02-14T08:02:10;100654.38;;;15.41;58.00
50268;BME280;36153;50.960;6.220;2024-02-14T08:04:10;100649.84;;;15.65;57.30
50268;BME280;36153;50.960;6.220;2024-02-14T08:06:13;100650.63;;;15.79;57.03
50268;BME280;36153;50.960;6.220;2024-02-14T08:08:13;100661.25;;;15.58;57.60
50268;BME280;36153;50.960;6.220;2024-02-14T08:10:14;100670.88;;;15.56;57.52
50268;BME280;36153;50.960;6.220;2024-02-14T08:12:14;100664.78;;;15.55;57.51
50268;BME280;36153;50.960;6.220;2024-02-14T08:14:14;100667.50;;;15.36;58.11
50268;BME280;36153;50.960;6.220;2024-02-14T08:16:14;100670.88;;;15.60;57.48
50268;BME280;36153;50.960;6.220;2024-02-14T08:18:15;100670.69;;;15.85;57.10
50268;BME280;36153;50.960;6.220;2024-02-14T08:20:15;100657.66;;;15.71;57.09
50268;BME280;36153;50.960;6.220;2024-02-14T08:22:15;100669.75;;;15.97;56.78
50268;BME280;36153;50.960;6.220;2024-02-14T08:24:16;100667.03;;;16.09;56.23
50268;BME280;36153;50.960;6.220;2024-02-14T08:26:17;100662.69;;;16.03;56.34
50268;BME280;36153;50.960;6.220;2024-02-14T08:28:17;100668.69;;;16.18;55.93
50268;BME280;36153;50.960;6.220;2024-02-14T08:30:18;100671.31;;;16.19;55.73
50268;BME280;36153;50.960;6.220;2024-02-14T08:32:19;100665.47;;;15.79;56.87
50268;BME280;36153;50.960;6.220;2024-02-14T08:34:20;100659.16;;;16.09;56.27
50268;BME280;36153;50.960;6.220;2024-02-14T08:36:20;100657.38;;;16.11;56.02
50268;BME280;36153;50.960;6.220;2024-02-14T08:38:21;100667.88;;;16.11;56.18
50268;BME280;36153;50.960;6.220;2024-02-14T08:40:21;100662.72;;;16.02;56.14
50268;BME280;36153;50.960;6.220;2024-02-14T08:42:21;100661.66;;;16.18;56.28
50268;BME280;36153;50.960;6.220;2024-02-14T08:44:23;100658.00;;;16.40;55.24
50268;BME280;36153;50.960;6.220;2024-02-14T08:46:23;100664.19;;;16.31;55.87
50268;BME280;36153;50.960;6.220;2024-02-14T08:48:25;100658.13;;;16.27;56.13
50268;BME280;36153;50.960;6.220;2024-02-14T08:50:27;100658.72;;;16.52;55.25
50268;BME280;36153;50.960;6.220;2024-02-14T08:52:30;100656.03;;;16.57;55.02
50268;BME280;36153;50.960;6.220;2024-02-14T08:54:30;100662.19;;;16.54;55.11
50268;BME280;36153;50.960;6.220;2024-02-14T08:56:33;100662.34;;;16.41;55.93
50268;BME280;36153;50.960;6.220;2024-02-14T08:58:33;100660.47;;;16.53;55.25
50268;BME280;36153;50.960;6.220;2024-02-14T09:00:35;100659.53;;;16.61;54.86
50268;BME280;36153;50.960;6.220;2024-02-14T09:02:36;100658.56;;;16.68;54.90
50268;BME280;36153;50.960;6.220;2024-02-14T09:04:36;100655.09;;;16.63;55.05
50268;BME280;36153;50.960;6.220;2024-02-14T09:06:37;100659.25;;;16.82;54.49
50268;BME280;36153;50.960;6.220;2024-02-14T09:08:39;100663.59;;;16.89;54.53
50268;BME280;36153;50.960;6.220;2024-02-14T09:10:40;100663.53;;;16.96;54.42
50268;BME280;36153;50.960;6.220;2024-02-14T09:12:40;100659.78;;;17.15;53.80
50268;BME280;36153;50.960;6.220;2024-02-14T09:14:44;100659.72;;;17.18;53.59
50268;BME280;36153;50.960;6.220;2024-02-14T09:16:44;100661.56;;;17.13;54.04
50268;BME280;36153;50.960;6.220;2024-02-14T09:18:46;100662.16;;;17.32;53.06
50268;BME280;36153;50.960;6.220;2024-02-14T09:20:47;100669.84;;;17.48;53.04
50268;BME280;36153;50.960;6.220;2024-02-14T09:22:47;100675.25;;;17.38;53.10
50268;BME280;36153;50.960;6.220;2024-02-14T09:24:48;100673.59;;;17.30;52.95
50268;BME280;36153;50.960;6.220;2024-02-14T09:26:49;100681.31;;;17.42;53.24
50268;BME280;36153;50.960;6.220;2024-02-14T09:28:49;100684.78;;;17.47;52.75
50268;BME280;36153;50.960;6.220;2024-02-14T09:30:49;100681.66;;;17.17;53.50
50268;BME280;36153;50.960;6.220;2024-02-14T09:32:50;100679.16;;;17.08;53.90
50268;BME280;36153;50.960;6.220;2024-02-14T09:34:51;100687.94;;;17.07;53.94
50268;BME280;36153;50.960;6.220;2024-02-14T09:36:51;100686.13;;;17.12;53.88
50268;BME280;36153;50.960;6.220;2024-02-14T09:38:53;100697.34;;;17.25;53.61
50268;BME280;36153;50.960;6.220;2024-02-14T09:40:58;100702.09;;;16.94;54.12
50268;BME280;36153;50.960;6.220;2024-02-14T09:43:03;100712.66;;;16.91;54.42
50268;BME280;36153;50.960;6.220;2024-02-14T09:45:05;100708.69;;;16.51;55.34
50268;BME280;36153;50.960;6.220;2024-02-14T09:47:07;100702.16;;;16.87;54.93
50268;BME280;36153;50.960;6.220;2024-02-14T09:49:07;100701.59;;;16.58;55.37
50268;BME280;36153;50.960;6.220;2024-02-14T09:51:11;100710.94;;;16.91;54.61
50268;BME280;36153;50.960;6.220;2024-02-14T09:53:12;100701.16;;;17.02;54.49
50268;BME280;36153;50.960;6.220;2024-02-14T09:55:14;100702.25;;;16.78;54.59
50268;BME280;36153;50.960;6.220;2024-02-14T09:57:16;100711.44;;;17.19;54.28
50268;BME280;36153;50.960;6.220;2024-02-14T09:59:17;100716.34;;;17.49;53.59
50268;BME280;36153;50.960;6.220;2024-02-14T10:01:18;100720.06;;;17.32;54.26
50268;BME280;36153;50.960;6.220;2024-02-14T10:03:21;100722.53;;;17.43;54.15
50268;BME280;36153;50.960;6.220;2024-02-14T10:05:21;100726.19;;;17.33;54.37
50268;BME280;36153;50.960;6.220;2024-02-14T10:07:21;100737.16;;;16.96;54.95
50268;BME280;36153;50.960;6.220;2024-02-14T10:09:22;100721.25;;;17.08;55.48
50268;BME280;36153;50.960;6.220;2024-02-14T10:11:23;100735.97;;;17.23;54.87
50268;BME280;36153;50.960;6.220;2024-02-14T10:13:28;100733.34;;;17.21;54.93
50268;BME280;36153;50.960;6.220;2024-02-14T10:15:32;100734.25;;;17.17;55.11
50268;BME280;36153;50.960;6.220;2024-02-14T10:17:33;100732.50;;;17.19;55.04
50268;BME280;36153;50.960;6.220;2024-02-14T10:19:33;100737.47;;;17.41;54.94
50268;BME280;36153;50.960;6.220;2024-02-14T10:21:35;100734.94;;;17.35;55.05
50268;BME280;36153;50.960;6.220;2024-02-14T10:23:36;100728.59;;;17.51;55.33
50268;BME280;36153;50.960;6.220;2024-02-14T10:25:38;100734.09;;;17.30;56.36
50268;BME280;36153;50.960;6.220;2024-02-14T10:27:39;100736.78;;;17.27;55.91
50268;BME280;36153;50.960;6.220;2024-02-14T10:29:40;100729.03;;;17.14;55.86
50268;BME280;36153;50.960;6.220;2024-02-14T10:31:41;100731.28;;;17.45;54.91
50268;BME280;36153;50.960;6.220;2024-02-14T10:33:42;100727.00;;;17.36;55.16